Henry Post Army Air Field (Fort Sill) Fort Sill US
ICAO: KFSI
IATA: FSI
Category: Medium
Scheduled Services: No

Elevation: 1189 ft
TransAlt. 18000 ft.

Airport Communications:
FORT SILL APP/DEP:118.6
ATIS:135.425
CLNC DEL:121.7
POST GND:121.7
DUNCAN SCTR:118.6
PMSV METRO:37.52
PTD:123.05
POST TWR:124.95

KFSI Zoom In..

Runways:

(A) RW 17 length 5001 ft width 150 ft
---- / hdg 173

(B) RW 35 length 5001 ft width 150 ft
---- / hdg 353

Location; KFSI
Day. 21 / Time. 23.56 Zulu
* Altimeter: 29.66
* Temperature: 19° c. 66.2°f.
* Wind from: 250° Speed 15 kn with Gusts up to 21 kn.
Dewpoint: -08° c.
Visibility: 10 Statute Miles.
Clouds: Few 1000 ft.

KFSI 212356Z AUTO 25015G21KT 10SM FEW100 19/M08 A2966 RMK AO2 PK WND 24030/22 SLP040 T01871085 10222 20177 55000


Wind From 250°
Speed 15 kn.

jpsM music video
CHECK IT OUT

jpsM - It Moves..

 
jpsmedia.com for Web Design  worldairports.se 2018   terms of use